Time;durP1;ratioP1;P1;durP2;ratioP2;P2;SDS_P1;SDS_P2;PMS_P1;PMS_P2;Temp;Humidity;BMP_temperature;BMP_pressure;BME280_temperature;BME280_humidity;BME280_pressure;Samples;Min_cycle;Max_cycle;Signal;HPM_P1;HPM_P2
2022/10/09 00:01:22;;;;;;;6.33;2.20;;;8.90;99.90;;;;;;5044082;28;20310;-40
2022/10/09 00:03:51;;;;;;;5.30;2.00;;;8.80;99.90;;;;;;5025776;28;20210;-39
2022/10/09 00:06:20;;;;;;;8.07;2.23;;;8.80;99.90;;;;;;5043474;28;20218;-41
2022/10/09 00:08:47;;;;;;;3.20;1.90;;;8.80;99.90;;;;;;5032248;28;20226;-39
2022/10/09 00:11:15;;;;;;;4.47;2.00;;;8.90;99.90;;;;;;5037710;28;20301;-40
2022/10/09 00:13:42;;;;;;;4.27;1.70;;;8.80;99.90;;;;;;5034802;28;20211;-39
2022/10/09 00:16:12;;;;;;;7.47;2.00;;;8.70;99.90;;;;;;5042125;28;20175;-39
2022/10/09 00:18:40;;;;;;;6.47;1.97;;;8.80;99.90;;;;;;5029298;28;20223;-40
2022/10/09 00:21:17;;;;;;;5.37;2.40;;;8.80;99.90;;;;;;5036565;28;20217;-40
2022/10/09 00:23:44;;;;;;;4.67;1.80;;;8.80;99.90;;;;;;5032173;28;20691;-39
2022/10/09 00:26:11;;;;;;;4.97;1.77;;;8.70;99.90;;;;;;5036217;28;20226;-40
2022/10/09 00:28:37;;;;;;;4.20;1.67;;;8.70;99.90;;;;;;5030254;28;20314;-39
2022/10/09 00:31:05;;;;;;;3.60;1.60;;;8.70;99.90;;;;;;5041458;28;20210;-39
2022/10/09 00:33:31;;;;;;;6.47;2.00;;;8.70;99.90;;;;;;5038964;28;20672;-39
2022/10/09 00:36:02;;;;;;;5.50;1.57;;;8.60;99.90;;;;;;5030093;28;20210;-40
2022/10/09 00:38:29;;;;;;;5.43;1.77;;;8.60;99.90;;;;;;5031592;28;20227;-39
2022/10/09 00:40:56;;;;;;;7.07;3.03;;;8.60;99.90;;;;;;5037350;28;20648;-40
2022/10/09 00:43:43;;;;;;;6.07;1.57;;;8.60;99.90;;;;;;5039104;28;20192;-40
2022/10/09 00:46:33;;;;;;;4.60;1.43;;;8.50;99.90;;;;;;5022123;28;20219;-39
2022/10/09 00:49:10;;;;;;;4.97;1.63;;;8.50;99.90;;;;;;5020759;28;20665;-39
2022/10/09 00:51:39;;;;;;;8.00;1.90;;;8.50;99.90;;;;;;5018142;28;20930;-39
2022/10/09 00:54:11;;;;;;;7.83;1.90;;;8.50;99.90;;;;;;5035723;28;20199;-39
2022/10/09 00:56:37;;;;;;;7.90;2.37;;;8.60;99.90;;;;;;5027651;28;20210;-40
2022/10/09 00:59:05;;;;;;;5.90;1.70;;;8.70;99.90;;;;;;5038036;28;20234;-39
2022/10/09 01:01:31;;;;;;;8.10;1.93;;;8.80;99.90;;;;;;5039600;28;20667;-39
2022/10/09 01:03:58;;;;;;;8.20;1.80;;;8.70;99.90;;;;;;5042322;28;20191;-39
2022/10/09 01:06:38;;;;;;;8.50;2.40;;;8.70;99.90;;;;;;5023837;28;20223;-39
2022/10/09 01:09:11;;;;;;;5.67;1.80;;;8.80;99.90;;;;;;5042055;28;20214;-40
2022/10/09 01:11:46;;;;;;;5.80;1.60;;;8.80;99.90;;;;;;5026948;28;20204;-40
2022/10/09 01:14:22;;;;;;;5.60;1.73;;;8.70;99.90;;;;;;5037066;28;20206;-39
2022/10/09 01:16:56;;;;;;;5.03;1.80;;;8.60;99.90;;;;;;5030957;28;20309;-39
2022/10/09 01:19:40;;;;;;;6.43;1.83;;;8.70;99.90;;;;;;5040265;28;20300;-39
2022/10/09 01:22:18;;;;;;;4.87;1.87;;;8.70;99.90;;;;;;5017946;28;20211;-42
2022/10/09 01:24:54;;;;;;;5.03;1.60;;;8.60;99.90;;;;;;5038548;28;20199;-40
2022/10/09 01:27:25;;;;;;;6.57;1.60;;;8.60;99.90;;;;;;5025240;28;20203;-39
2022/10/09 01:29:56;;;;;;;5.23;2.00;;;8.50;99.90;;;;;;5039358;28;20215;-38
2022/10/09 01:32:27;;;;;;;3.57;1.60;;;8.50;99.90;;;;;;5045027;28;20199;-38
2022/10/09 01:34:55;;;;;;;4.70;2.07;;;8.60;99.90;;;;;;5039732;28;20218;-37
2022/10/09 01:37:24;;;;;;;3.20;1.60;;;8.50;99.90;;;;;;5038592;28;20192;-38
2022/10/09 01:39:53;;;;;;;8.60;1.73;;;8.50;99.90;;;;;;5039331;28;20215;-38
2022/10/09 01:42:24;;;;;;;7.67;1.80;;;8.50;99.90;;;;;;5038422;28;20582;-38
2022/10/09 01:44:51;;;;;;;4.23;1.50;;;8.40;99.90;;;;;;5038537;28;20204;-39
2022/10/09 01:47:20;;;;;;;2.43;1.70;;;8.40;99.90;;;;;;5039069;28;20648;-40
2022/10/09 01:49:53;;;;;;;6.10;1.90;;;8.50;99.90;;;;;;5043997;28;20282;-39
2022/10/09 01:52:35;;;;;;;6.97;2.03;;;8.20;99.90;;;;;;5034913;28;20215;-39
2022/10/09 01:55:26;;;;;;;4.23;1.90;;;8.40;99.90;;;;;;5042988;28;20196;-38
2022/10/09 01:58:00;;;;;;;6.13;2.23;;;8.30;99.90;;;;;;5035759;28;20211;-38
2022/10/09 02:00:30;;;;;;;8.77;2.50;;;8.50;99.90;;;;;;5040877;28;20687;-38
2022/10/09 02:02:58;;;;;;;2.97;1.70;;;8.50;99.90;;;;;;5044823;28;20203;-38
2022/10/09 02:05:27;;;;;;;5.17;1.30;;;8.30;99.90;;;;;;5041346;28;20226;-38
2022/10/09 02:07:56;;;;;;;6.00;1.93;;;8.40;99.90;;;;;;5023478;28;20234;-39
2022/10/09 02:10:24;;;;;;;5.07;1.90;;;8.40;99.90;;;;;;5043763;28;20541;-39
2022/10/09 02:12:57;;;;;;;7.13;1.87;;;8.20;99.90;;;;;;5033715;28;20219;-38
2022/10/09 02:15:28;;;;;;;5.50;1.87;;;8.40;99.90;;;;;;5042342;28;20281;-38
2022/10/09 02:18:00;;;;;;;6.97;1.83;;;8.30;99.90;;;;;;5039566;28;20210;-40
2022/10/09 02:20:31;;;;;;;3.13;2.00;;;8.30;99.90;;;;;;5036616;28;20573;-38
2022/10/09 02:23:02;;;;;;;9.17;2.73;;;8.30;99.90;;;;;;5027555;28;20207;-39
2022/10/09 02:25:29;;;;;;;10.30;1.90;;;8.40;99.90;;;;;;5041192;28;20210;-38
2022/10/09 02:27:58;;;;;;;5.90;1.73;;;8.40;99.90;;;;;;5043051;28;20203;-39
2022/10/09 02:30:29;;;;;;;3.80;1.63;;;8.50;99.90;;;;;;5036636;28;20207;-38
2022/10/09 02:32:56;;;;;;;6.10;1.80;;;8.50;99.90;;;;;;5037475;28;20203;-38
2022/10/09 02:35:23;;;;;;;6.40;2.00;;;8.60;99.90;;;;;;5037731;28;20196;-38
2022/10/09 02:37:50;;;;;;;5.37;2.10;;;8.70;99.90;;;;;;5031017;28;20203;-39
2022/10/09 02:40:16;;;;;;;8.97;2.10;;;8.60;99.90;;;;;;5030239;28;21070;-39
2022/10/09 02:42:43;;;;;;;5.23;1.67;;;8.60;99.90;;;;;;5041695;28;20215;-39
2022/10/09 02:45:12;;;;;;;4.40;2.10;;;8.70;99.90;;;;;;5037309;28;20203;-39
2022/10/09 02:47:39;;;;;;;3.47;1.90;;;8.60;99.90;;;;;;5029751;28;20207;-39
2022/10/09 02:50:07;;;;;;;8.07;1.77;;;8.70;99.90;;;;;;5045210;28;20204;-39
2022/10/09 02:52:34;;;;;;;5.20;2.13;;;8.60;99.90;;;;;;5036385;28;20366;-39
2022/10/09 02:55:01;;;;;;;6.57;1.90;;;8.60;99.90;;;;;;5032386;28;20689;-39
2022/10/09 02:57:28;;;;;;;4.53;1.93;;;8.60;99.90;;;;;;5042221;28;20191;-39
2022/10/09 02:59:55;;;;;;;3.57;1.53;;;8.60;99.90;;;;;;5043746;28;20222;-39
2022/10/09 03:02:23;;;;;;;5.23;1.70;;;8.60;99.90;;;;;;5036506;28;20207;-38
2022/10/09 03:04:50;;;;;;;3.60;1.73;;;8.60;99.90;;;;;;5036765;28;20236;-39
2022/10/09 03:07:17;;;;;;;4.30;1.77;;;8.60;99.90;;;;;;5037324;28;20676;-39
2022/10/09 03:09:44;;;;;;;4.50;1.63;;;8.60;99.90;;;;;;5037000;28;20214;-39
2022/10/09 03:12:10;;;;;;;4.50;2.60;;;8.50;99.90;;;;;;5031310;28;20215;-39
2022/10/09 03:14:37;;;;;;;5.17;1.90;;;8.50;99.90;;;;;;5039569;28;20821;-39
2022/10/09 03:17:04;;;;;;;4.90;1.87;;;8.60;99.90;;;;;;5035395;28;20191;-39
2022/10/09 03:19:32;;;;;;;7.53;2.60;;;8.60;99.90;;;;;;5037255;28;20214;-39
2022/10/09 03:21:59;;;;;;;5.23;1.80;;;8.50;99.90;;;;;;5024770;28;20200;-39
2022/10/09 03:24:26;;;;;;;9.37;2.30;;;8.50;99.90;;;;;;5024482;28;20204;-40
2022/10/09 03:26:53;;;;;;;6.03;1.83;;;8.60;99.90;;;;;;5030968;28;23842;-39
2022/10/09 03:29:21;;;;;;;7.97;1.87;;;8.60;99.90;;;;;;5042565;28;20723;-39
2022/10/09 03:31:47;;;;;;;8.60;2.40;;;8.50;99.90;;;;;;5041654;28;20187;-39
2022/10/09 03:34:14;;;;;;;6.87;2.07;;;8.50;99.90;;;;;;5035374;28;20222;-39
2022/10/09 03:36:42;;;;;;;4.63;2.00;;;8.40;99.90;;;;;;5028842;28;20226;-39
2022/10/09 03:39:10;;;;;;;8.10;1.70;;;8.40;99.90;;;;;;5044047;28;20261;-40
2022/10/09 03:41:36;;;;;;;3.83;1.73;;;8.40;99.90;;;;;;5035277;28;20773;-39
2022/10/09 03:44:03;;;;;;;3.63;1.83;;;8.30;99.90;;;;;;5030685;28;20672;-40
2022/10/09 03:46:31;;;;;;;6.00;1.73;;;8.30;99.90;;;;;;5034920;28;20219;-42
2022/10/09 03:48:58;;;;;;;2.93;1.60;;;8.30;99.90;;;;;;5036324;28;20227;-40
2022/10/09 03:51:25;;;;;;;5.47;1.53;;;8.20;99.90;;;;;;5036832;28;20676;-39
2022/10/09 03:53:53;;;;;;;6.73;2.03;;;8.10;99.90;;;;;;5041627;28;20198;-39
2022/10/09 03:56:20;;;;;;;6.10;1.97;;;8.10;99.90;;;;;;5035761;28;20203;-40
2022/10/09 03:58:47;;;;;;;4.53;1.67;;;8.00;99.90;;;;;;5023843;28;21176;-39
2022/10/09 04:01:14;;;;;;;3.43;1.50;;;8.00;99.90;;;;;;5043630;28;20289;-39
2022/10/09 04:03:40;;;;;;;7.00;2.53;;;8.00;99.90;;;;;;5030754;28;20238;-39
2022/10/09 04:06:07;;;;;;;5.57;2.30;;;7.90;99.90;;;;;;5042899;28;20290;-39
2022/10/09 04:08:35;;;;;;;4.77;2.00;;;7.90;99.90;;;;;;5033339;28;20234;-39
2022/10/09 04:11:03;;;;;;;3.53;1.60;;;7.90;99.90;;;;;;5026540;28;20198;-40
2022/10/09 04:13:30;;;;;;;6.97;1.90;;;7.90;99.90;;;;;;5025129;28;20211;-37
2022/10/09 04:15:57;;;;;;;2.43;1.50;;;7.90;99.90;;;;;;5041306;28;20203;-38
2022/10/09 04:18:25;;;;;;;4.63;1.60;;;7.90;99.90;;;;;;5035281;28;20234;-38
2022/10/09 04:20:53;;;;;;;4.40;1.63;;;7.90;99.90;;;;;;5034925;28;20199;-38
2022/10/09 04:23:24;;;;;;;5.87;1.83;;;7.80;99.90;;;;;;5036552;28;20675;-37
2022/10/09 04:25:53;;;;;;;10.67;1.90;;;7.90;99.90;;;;;;5041391;28;20230;-38
2022/10/09 04:28:22;;;;;;;5.23;1.80;;;8.00;99.90;;;;;;5037294;28;20515;-37
2022/10/09 04:30:49;;;;;;;8.00;1.80;;;8.00;99.90;;;;;;5028498;28;20265;-38
2022/10/09 04:33:16;;;;;;;5.10;1.67;;;8.00;99.90;;;;;;5040896;28;20552;-39
2022/10/09 04:35:43;;;;;;;5.67;1.70;;;8.00;99.90;;;;;;5028886;28;20195;-38
2022/10/09 04:38:09;;;;;;;3.00;1.40;;;7.90;99.90;;;;;;5025130;28;20227;-40
2022/10/09 04:40:36;;;;;;;4.53;1.57;;;7.80;99.90;;;;;;5043202;28;20192;-38
2022/10/09 04:43:04;;;;;;;6.67;1.77;;;7.70;99.90;;;;;;5026473;28;20282;-38
2022/10/09 04:45:32;;;;;;;4.30;1.73;;;7.70;99.90;;;;;;5027720;28;20195;-39
2022/10/09 04:47:59;;;;;;;4.00;1.97;;;7.70;99.90;;;;;;5041146;28;20211;-39
2022/10/09 04:50:26;;;;;;;3.60;2.03;;;7.60;99.90;;;;;;5034895;28;20230;-40
2022/10/09 04:52:58;;;;;;;5.00;1.70;;;7.50;99.90;;;;;;5039226;28;20210;-39
2022/10/09 04:55:26;;;;;;;3.17;1.83;;;7.50;99.90;;;;;;5037912;28;20241;-39
2022/10/09 04:57:53;;;;;;;4.37;2.20;;;7.50;99.90;;;;;;5037032;28;20199;-39
2022/10/09 05:00:19;;;;;;;7.60;2.00;;;7.50;99.90;;;;;;5027433;28;20212;-40
2022/10/09 05:02:48;;;;;;;2.97;2.00;;;7.30;99.90;;;;;;5043092;28;20196;-39
2022/10/09 05:05:15;;;;;;;2.80;2.00;;;7.30;99.90;;;;;;5021957;28;20215;-39
2022/10/09 05:07:41;;;;;;;9.00;2.20;;;7.20;99.90;;;;;;5024729;28;20288;-39
2022/10/09 05:10:09;;;;;;;3.53;1.70;;;7.30;99.90;;;;;;5042074;28;20209;-39
2022/10/09 05:12:36;;;;;;;5.80;2.40;;;7.10;99.90;;;;;;5037321;28;20198;-39
2022/10/09 05:15:04;;;;;;;6.00;2.03;;;7.10;99.90;;;;;;5045183;28;20543;-39
2022/10/09 05:17:31;;;;;;;5.63;1.97;;;6.90;99.90;;;;;;5023979;28;20213;-40
2022/10/09 05:19:59;;;;;;;4.17;2.20;;;7.00;99.90;;;;;;5046402;28;20302;-40
2022/10/09 05:22:26;;;;;;;4.27;1.87;;;7.00;99.90;;;;;;5037507;28;20217;-39
2022/10/09 05:24:53;;;;;;;7.43;1.87;;;7.10;99.90;;;;;;5039229;28;20191;-41
2022/10/09 05:27:19;;;;;;;7.20;1.93;;;7.10;99.90;;;;;;5038678;28;20203;-39
2022/10/09 05:29:46;;;;;;;3.07;2.10;;;7.00;99.90;;;;;;5039004;28;20218;-39
2022/10/09 05:32:14;;;;;;;4.17;2.13;;;7.00;99.90;;;;;;5033413;28;20210;-39
2022/10/09 05:34:40;;;;;;;5.93;1.90;;;7.00;99.90;;;;;;5041292;28;20203;-40
2022/10/09 05:37:08;;;;;;;2.87;1.87;;;7.00;99.90;;;;;;5037412;28;20196;-40
2022/10/09 05:39:37;;;;;;;7.50;2.20;;;6.90;99.90;;;;;;5037324;28;20207;-40
2022/10/09 05:42:04;;;;;;;2.47;2.27;;;6.80;99.90;;;;;;5046078;28;20214;-39
2022/10/09 05:44:31;;;;;;;2.73;1.70;;;6.80;99.90;;;;;;5036997;28;20356;-39
2022/10/09 05:46:58;;;;;;;3.27;2.17;;;6.80;99.90;;;;;;5046055;28;20234;-40
2022/10/09 05:49:25;;;;;;;3.27;1.70;;;6.90;99.90;;;;;;5031015;28;20225;-48
2022/10/09 05:51:52;;;;;;;2.30;1.80;;;6.80;99.90;;;;;;5044667;28;20191;-49
2022/10/09 05:54:20;;;;;;;4.00;1.87;;;6.70;99.90;;;;;;5035027;28;20223;-48
2022/10/09 05:56:47;;;;;;;2.43;2.00;;;6.60;99.90;;;;;;5024534;28;20210;-47
2022/10/09 05:59:18;;;;;;;4.43;2.23;;;6.60;99.90;;;;;;5043120;28;20215;-47
2022/10/09 06:01:47;;;;;;;6.60;1.80;;;6.50;99.90;;;;;;5029422;28;20199;-47
2022/10/09 06:04:16;;;;;;;5.43;2.20;;;6.50;99.90;;;;;;5026731;28;20203;-47
2022/10/09 06:06:43;;;;;;;3.10;2.60;;;6.50;99.90;;;;;;5033526;28;20219;-47
2022/10/09 06:09:11;;;;;;;6.00;2.77;;;6.50;99.90;;;;;;5026482;28;20227;-47
2022/10/09 06:11:40;;;;;;;2.83;2.43;;;6.50;99.90;;;;;;5034248;28;20997;-47
2022/10/09 06:14:09;;;;;;;2.67;1.97;;;6.60;99.90;;;;;;5040287;28;20545;-47
2022/10/09 06:16:38;;;;;;;4.90;2.10;;;6.60;99.90;;;;;;5021765;28;20199;-47
2022/10/09 06:19:07;;;;;;;4.67;2.77;;;6.60;99.90;;;;;;5043320;28;20219;-48
2022/10/09 06:21:34;;;;;;;5.53;2.60;;;6.70;99.90;;;;;;5021447;28;20210;-47
2022/10/09 06:24:03;;;;;;;4.97;2.40;;;6.70;99.90;;;;;;5041643;28;20207;-48
2022/10/09 06:26:31;;;;;;;5.73;2.27;;;6.80;99.90;;;;;;5027910;28;20222;-47
2022/10/09 06:29:01;;;;;;;8.00;3.20;;;6.90;99.90;;;;;;5037740;28;20220;-47
2022/10/09 06:31:30;;;;;;;4.40;2.47;;;6.90;99.90;;;;;;5031548;28;20218;-47
2022/10/09 06:33:58;;;;;;;5.43;3.30;;;6.90;99.90;;;;;;5039852;28;20195;-47
2022/10/09 06:36:27;;;;;;;6.13;2.57;;;7.00;99.90;;;;;;5022325;28;20207;-47
2022/10/09 06:38:55;;;;;;;5.77;3.77;;;7.10;99.90;;;;;;5034539;28;20704;-48
2022/10/09 06:41:24;;;;;;;6.73;3.83;;;7.20;99.90;;;;;;5031497;28;20265;-47
2022/10/09 06:43:52;;;;;;;7.50;3.50;;;7.40;99.90;;;;;;5034081;28;20206;-47
2022/10/09 06:46:22;;;;;;;8.33;3.90;;;7.50;99.90;;;;;;5031778;28;20207;-47
2022/10/09 06:48:49;;;;;;;6.53;3.80;;;7.60;99.90;;;;;;5043871;28;20222;-47
2022/10/09 06:51:17;;;;;;;7.57;3.53;;;7.70;99.90;;;;;;5026062;28;20939;-47
2022/10/09 06:53:46;;;;;;;7.67;4.17;;;7.80;99.90;;;;;;5037961;28;20207;-47
2022/10/09 06:56:14;;;;;;;7.33;3.90;;;7.90;99.90;;;;;;5028080;28;20201;-47
2022/10/09 06:58:41;;;;;;;5.93;3.33;;;8.10;99.90;;;;;;5036660;28;20234;-47
2022/10/09 07:01:10;;;;;;;8.87;3.93;;;8.10;99.90;;;;;;5033587;28;20196;-47
2022/10/09 07:03:41;;;;;;;7.50;3.97;;;8.20;99.90;;;;;;5036053;28;20229;-47
2022/10/09 07:06:10;;;;;;;9.23;3.53;;;8.30;99.90;;;;;;5023987;28;20203;-47
2022/10/09 07:08:37;;;;;;;10.77;4.03;;;8.40;99.90;;;;;;5038348;28;20223;-47
2022/10/09 07:11:09;;;;;;;7.73;4.07;;;8.50;99.90;;;;;;5034813;28;20203;-47
2022/10/09 07:14:01;;;;;;;11.23;4.60;;;8.50;99.90;;;;;;5027196;28;20268;-47
2022/10/09 07:16:31;;;;;;;11.10;4.20;;;8.60;99.90;;;;;;5039579;28;20193;-47
2022/10/09 07:19:00;;;;;;;7.67;4.30;;;8.70;99.90;;;;;;5032053;28;20223;-38
2022/10/09 07:21:27;;;;;;;12.33;4.37;;;8.80;99.90;;;;;;5042418;28;20632;-39
2022/10/09 07:23:53;;;;;;;7.50;4.43;;;8.80;99.90;;;;;;5025854;28;20207;-38
2022/10/09 07:26:22;;;;;;;8.73;4.60;;;8.90;99.90;;;;;;5039527;28;20191;-38
2022/10/09 07:28:49;;;;;;;6.93;4.23;;;9.00;99.90;;;;;;5029202;28;20576;-38
2022/10/09 07:31:17;;;;;;;8.00;4.50;;;9.10;99.90;;;;;;5029824;28;20226;-38
2022/10/09 07:33:46;;;;;;;11.57;4.90;;;9.20;99.90;;;;;;5031961;28;20211;-38
2022/10/09 07:36:15;;;;;;;9.63;5.20;;;9.30;99.90;;;;;;5030075;28;20187;-39
2022/10/09 07:38:41;;;;;;;9.43;5.63;;;9.40;99.90;;;;;;5026980;28;20225;-38
2022/10/09 07:41:10;;;;;;;10.57;4.77;;;9.40;99.90;;;;;;5030173;28;20286;-39
2022/10/09 07:43:39;;;;;;;7.43;4.27;;;9.50;99.90;;;;;;5028836;28;20215;-39
2022/10/09 07:46:09;;;;;;;7.97;4.43;;;9.60;99.90;;;;;;5032511;28;20209;-38
2022/10/09 07:48:36;;;;;;;14.03;4.87;;;9.60;99.90;;;;;;5026730;28;20247;-38
2022/10/09 07:51:08;;;;;;;14.37;4.60;;;9.70;99.90;;;;;;5030371;28;20204;-38
2022/10/09 07:53:37;;;;;;;7.77;4.40;;;9.80;99.90;;;;;;5025369;28;20699;-39
2022/10/09 07:56:04;;;;;;;10.13;4.83;;;9.80;99.90;;;;;;5036197;28;20203;-38
2022/10/09 07:58:32;;;;;;;9.03;4.20;;;9.90;99.90;;;;;;5028982;28;20234;-38
2022/10/09 08:01:04;;;;;;;12.33;4.83;;;10.00;99.90;;;;;;5032838;28;20203;-38
2022/10/09 08:03:30;;;;;;;13.60;4.90;;;10.10;99.90;;;;;;5033232;28;20207;-38
2022/10/09 08:05:58;;;;;;;9.63;4.50;;;10.20;99.90;;;;;;5035774;28;20196;-38
2022/10/09 08:08:25;;;;;;;8.00;3.60;;;10.30;99.90;;;;;;5036975;28;20215;-38
2022/10/09 08:10:53;;;;;;;8.73;4.20;;;10.40;99.90;;;;;;5026303;28;20203;-38
2022/10/09 08:13:20;;;;;;;8.13;4.10;;;10.50;99.90;;;;;;5035414;28;20807;-38
2022/10/09 08:15:46;;;;;;;8.47;4.00;;;10.50;99.90;;;;;;5031572;28;20191;-38
2022/10/09 08:18:13;;;;;;;6.97;4.03;;;10.60;99.90;;;;;;5032702;28;20226;-38
2022/10/09 08:20:40;;;;;;;11.23;4.30;;;10.70;99.90;;;;;;5031900;28;20207;-38
2022/10/09 08:23:08;;;;;;;6.43;3.97;;;10.80;99.90;;;;;;5032900;28;20214;-38
2022/10/09 08:25:35;;;;;;;8.70;3.80;;;;;;;;;;5023790;28;20201;-38
2022/10/09 08:28:04;;;;;;;7.70;3.57;;;11.00;99.90;;;;;;5041508;28;20277;-38
2022/10/09 08:30:31;;;;;;;5.70;3.43;;;11.00;99.90;;;;;;5022739;28;20215;-38
2022/10/09 08:32:58;;;;;;;14.20;3.50;;;11.10;99.90;;;;;;5035596;28;20210;-38
2022/10/09 08:35:24;;;;;;;9.07;2.90;;;11.20;99.90;;;;;;5019458;28;20207;-38
2022/10/09 08:37:51;;;;;;;8.43;3.50;;;11.20;99.90;;;;;;5041229;28;20190;-40
2022/10/09 08:40:27;;;;;;;8.73;3.43;;;11.30;99.90;;;;;;5029845;28;20291;-38
2022/10/09 08:43:03;;;;;;;9.23;3.40;;;11.40;99.90;;;;;;5027351;28;20198;-38
2022/10/09 08:45:33;;;;;;;7.17;3.07;;;11.40;99.90;;;;;;5034509;28;20204;-38
2022/10/09 08:48:05;;;;;;;8.17;2.70;;;11.50;99.90;;;;;;5031991;28;20222;-38
2022/10/09 08:50:34;;;;;;;5.73;3.00;;;11.50;99.90;;;;;;5031946;28;20413;-38
2022/10/09 08:53:08;;;;;;;4.20;2.03;;;11.60;99.90;;;;;;5045065;28;20199;-38
2022/10/09 08:55:41;;;;;;;9.47;2.57;;;11.70;99.90;;;;;;5031513;28;20199;-38
2022/10/09 08:58:15;;;;;;;7.57;2.30;;;11.80;99.90;;;;;;5028613;28;20219;-38
2022/10/09 09:00:49;;;;;;;5.50;2.37;;;11.90;99.90;;;;;;5034939;28;21202;-38
2022/10/09 09:03:42;;;;;;;11.73;3.33;;;12.00;99.90;;;;;;5035079;28;20205;-38
2022/10/09 09:06:14;;;;;;;7.03;2.43;;;12.20;99.90;;;;;;5031606;28;20215;-38
2022/10/09 09:08:50;;;;;;;7.53;2.33;;;12.40;99.90;;;;;;5040111;28;20558;-37
2022/10/09 09:11:27;;;;;;;8.00;2.30;;;12.50;99.90;;;;;;5033788;28;20226;-38
2022/10/09 09:14:10;;;;;;;5.57;1.67;;;12.60;99.90;;;;;;5028713;28;20294;-40
2022/10/09 09:16:45;;;;;;;4.13;1.90;;;12.60;99.90;;;;;;5036646;28;20699;-37
2022/10/09 09:19:39;;;;;;;6.50;2.00;;;12.60;99.90;;;;;;5036670;28;20366;-37
2022/10/09 09:22:12;;;;;;;4.30;1.87;;;12.60;99.90;;;;;;5032204;28;20290;-40
2022/10/09 09:24:43;;;;;;;4.77;1.60;;;12.70;99.90;;;;;;5039392;28;20225;-40
2022/10/09 09:27:13;;;;;;;6.97;1.90;;;12.80;99.90;;;;;;5033122;28;20979;-39
2022/10/09 09:29:44;;;;;;;5.20;1.60;;;12.80;99.90;;;;;;5032228;28;20694;-38
2022/10/09 09:32:20;;;;;;;6.37;1.50;;;12.90;99.90;;;;;;5032136;28;20217;-38
2022/10/09 09:34:47;;;;;;;4.47;1.50;;;12.90;99.90;;;;;;5038918;28;20286;-38
2022/10/09 09:37:14;;;;;;;4.83;1.70;;;13.10;99.90;;;;;;5023081;28;20213;-38
2022/10/09 09:39:42;;;;;;;5.63;1.60;;;13.00;99.90;;;;;;5043093;28;20700;-38
2022/10/09 09:42:15;;;;;;;4.07;1.30;;;13.10;99.90;;;;;;5032637;28;20207;-39
2022/10/09 09:44:47;;;;;;;7.47;1.40;;;13.10;99.90;;;;;;5029071;28;20215;-38
2022/10/09 09:47:22;;;;;;;4.47;1.90;;;13.20;99.90;;;;;;5040143;28;21051;-39
2022/10/09 09:49:59;;;;;;;4.23;1.60;;;;;;;;;;5030649;28;20206;-39
2022/10/09 09:52:28;;;;;;;1.93;1.20;;;;;;;;;;5027563;28;20293;-38
2022/10/09 09:54:57;;;;;;;7.67;1.00;;;;;;;;;;5036565;28;20957;-39
2022/10/09 09:57:31;;;;;;;7.50;1.00;;;13.50;99.90;;;;;;5038237;28;20787;-38
2022/10/09 10:00:19;;;;;;;6.47;0.97;;;13.50;99.90;;;;;;5032210;28;20223;-39
2022/10/09 10:03:01;;;;;;;2.50;1.20;;;13.50;99.90;;;;;;5037173;28;20606;-39
2022/10/09 10:05:28;;;;;;;3.73;1.47;;;13.60;99.90;;;;;;5032161;28;20262;-39
2022/10/09 10:07:56;;;;;;;2.73;0.97;;;13.60;99.90;;;;;;5034288;28;20306;-39
2022/10/09 10:10:25;;;;;;;5.03;1.20;;;13.60;99.90;;;;;;5035107;28;20672;-38
2022/10/09 10:12:57;;;;;;;3.80;1.43;;;13.70;99.90;;;;;;5033558;28;20199;-39
2022/10/09 10:15:27;;;;;;;6.37;1.10;;;13.70;99.90;;;;;;5034070;28;20721;-39
2022/10/09 10:18:03;;;;;;;6.07;1.13;;;13.70;99.90;;;;;;5030902;28;20212;-39
2022/10/09 10:20:33;;;;;;;5.13;1.53;;;13.80;99.90;;;;;;5034306;28;20245;-40
2022/10/09 10:23:01;;;;;;;5.47;1.10;;;;;;;;;;5035334;28;20206;-39
2022/10/09 10:25:33;;;;;;;6.83;1.20;;;14.00;99.90;;;;;;5039759;28;20286;-39
2022/10/09 10:28:05;;;;;;;6.77;0.97;;;13.90;99.90;;;;;;5036343;28;20280;-39
2022/10/09 10:30:35;;;;;;;4.40;1.27;;;13.90;99.90;;;;;;5038966;28;20206;-39
2022/10/09 10:33:07;;;;;;;3.77;0.90;;;14.00;99.90;;;;;;5023558;28;20207;-40
2022/10/09 10:35:36;;;;;;;2.90;1.00;;;13.90;99.90;;;;;;5029456;28;20426;-41
2022/10/09 10:38:12;;;;;;;4.23;1.43;;;13.90;99.90;;;;;;5037979;28;20251;-41
2022/10/09 10:40:44;;;;;;;3.53;0.80;;;13.90;99.90;;;;;;5034786;28;20286;-40
2022/10/09 10:43:26;;;;;;;6.80;1.57;;;14.00;99.90;;;;;;5040765;28;20557;-40
2022/10/09 10:46:00;;;;;;;3.97;0.80;;;14.00;99.90;;;;;;5043976;28;20249;-42
2022/10/09 10:48:31;;;;;;;5.67;0.80;;;14.00;99.90;;;;;;5026904;28;20250;-40
2022/10/09 10:51:11;;;;;;;6.03;1.23;;;14.10;99.90;;;;;;5033815;28;20207;-41
2022/10/09 10:53:52;;;;;;;3.63;1.17;;;14.00;99.90;;;;;;5036356;28;20214;-42
2022/10/09 10:56:26;;;;;;;4.13;1.00;;;14.00;99.90;;;;;;5043393;28;20281;-41
2022/10/09 10:59:02;;;;;;;3.50;0.83;;;14.00;99.90;;;;;;5036021;28;20223;-40
2022/10/09 11:01:39;;;;;;;3.07;0.77;;;14.00;99.90;;;;;;5042018;28;20202;-40
2022/10/09 11:04:30;;;;;;;4.00;1.40;;;14.10;99.90;;;;;;5020689;28;20203;-40
2022/10/09 11:07:05;;;;;;;3.13;0.90;;;14.10;99.90;;;;;;5036748;28;20932;-41
2022/10/09 11:09:39;;;;;;;5.73;1.03;;;14.10;99.90;;;;;;5040563;28;20210;-40
2022/10/09 11:12:15;;;;;;;4.27;0.73;;;14.20;99.90;;;;;;5038102;28;20948;-40
2022/10/09 11:14:49;;;;;;;3.77;0.90;;;14.20;99.90;;;;;;5037091;28;20211;-39
2022/10/09 11:17:28;;;;;;;4.50;0.90;;;14.30;99.90;;;;;;5036784;28;20203;-40
2022/10/09 11:20:24;;;;;;;2.43;0.93;;;14.40;99.90;;;;;;5025476;28;20234;-40
2022/10/09 11:23:05;;;;;;;4.87;1.00;;;14.50;99.90;;;;;;5040694;28;20207;-40
2022/10/09 11:25:39;;;;;;;6.23;0.90;;;14.60;99.90;;;;;;5034402;28;20669;-39
2022/10/09 11:28:11;;;;;;;4.33;0.97;;;14.60;99.90;;;;;;5037452;28;20261;-40
2022/10/09 11:30:43;;;;;;;5.73;1.00;;;14.60;99.90;;;;;;5034314;28;20211;-39
2022/10/09 11:33:25;;;;;;;2.97;0.80;;;14.70;99.90;;;;;;5031744;28;21012;-39
2022/10/09 11:35:58;;;;;;;2.67;0.93;;;14.70;99.90;;;;;;5023255;28;20214;-40
2022/10/09 11:38:28;;;;;;;3.57;1.03;;;14.70;99.90;;;;;;5036795;28;20208;-40
2022/10/09 11:40:57;;;;;;;4.17;1.10;;;14.70;99.90;;;;;;5033368;28;20231;-40
2022/10/09 11:43:46;;;;;;;5.30;1.03;;;14.70;99.90;;;;;;5041288;28;20206;-40
2022/10/09 11:46:21;;;;;;;6.30;1.10;;;14.60;99.90;;;;;;5031841;28;20195;-40
2022/10/09 11:48:54;;;;;;;3.43;0.70;;;14.60;99.90;;;;;;5042403;28;20287;-43
2022/10/09 11:51:32;;;;;;;2.80;1.20;;;14.60;99.90;;;;;;5021172;28;20207;-40
2022/10/09 11:54:00;;;;;;;4.83;1.00;;;14.70;99.90;;;;;;5041401;28;20664;-41
2022/10/09 11:56:28;;;;;;;2.47;0.87;;;14.70;99.90;;;;;;5035653;28;21004;-40
2022/10/09 11:58:57;;;;;;;3.73;1.13;;;14.70;99.90;;;;;;5043280;28;20211;-42
2022/10/09 12:01:28;;;;;;;4.70;0.93;;;14.60;99.90;;;;;;5043200;28;20198;-40
2022/10/09 12:04:05;;;;;;;4.80;1.10;;;14.70;99.90;;;;;;5041044;28;20196;-40
2022/10/09 12:06:46;;;;;;;5.37;0.87;;;14.80;99.90;;;;;;5028634;28;20287;-42
2022/10/09 12:09:21;;;;;;;6.50;1.10;;;15.00;99.90;;;;;;5027413;28;20223;-42
2022/10/09 12:11:58;;;;;;;5.60;1.27;;;15.10;99.90;;;;;;5034481;28;20207;-41
2022/10/09 12:14:27;;;;;;;5.60;1.07;;;15.20;99.90;;;;;;5027004;28;20984;-40
2022/10/09 12:16:54;;;;;;;5.47;1.50;;;15.30;99.90;;;;;;5033102;28;20207;-40
2022/10/09 12:19:24;;;;;;;4.97;0.80;;;15.10;99.90;;;;;;5037396;28;20215;-43
2022/10/09 12:21:59;;;;;;;7.03;1.00;;;15.00;99.90;;;;;;5025176;28;20218;-42
2022/10/09 12:24:29;;;;;;;1.87;0.83;;;15.00;99.90;;;;;;5029298;28;20199;-40
2022/10/09 12:27:02;;;;;;;3.03;1.40;;;15.00;99.90;;;;;;5040734;28;20284;-42
2022/10/09 12:29:33;;;;;;;2.33;0.90;;;15.10;99.90;;;;;;5031480;28;20310;-41
2022/10/09 12:32:05;;;;;;;3.73;1.03;;;15.20;99.90;;;;;;5042985;28;20187;-41
2022/10/09 12:34:36;;;;;;;4.43;1.10;;;15.20;99.90;;;;;;5034143;28;20203;-41
2022/10/09 12:37:11;;;;;;;2.30;1.33;;;15.30;99.90;;;;;;5019485;28;20288;-41
2022/10/09 12:39:38;;;;;;;2.97;0.90;;;15.40;99.90;;;;;;5031654;28;20242;-41
2022/10/09 12:42:07;;;;;;;5.73;1.10;;;15.40;99.90;;;;;;5038727;28;20206;-42
2022/10/09 12:44:38;;;;;;;7.43;1.50;;;;;;;;;;5028780;28;20364;-42
2022/10/09 12:47:07;;;;;;;4.63;0.90;;;;;;;;;;5042369;28;20660;-41
2022/10/09 12:49:34;;;;;;;2.60;0.90;;;15.70;99.90;;;;;;5031924;28;20702;-40
2022/10/09 12:52:01;;;;;;;2.67;0.60;;;15.60;99.90;;;;;;5012409;28;20211;-41
2022/10/09 12:54:30;;;;;;;2.87;0.80;;;15.40;99.90;;;;;;5034587;28;20199;-40
2022/10/09 12:56:58;;;;;;;5.07;0.80;;;15.30;99.90;;;;;;5033679;28;20199;-42
2022/10/09 12:59:27;;;;;;;1.70;0.80;;;15.30;99.90;;;;;;5035925;28;20231;-41
2022/10/09 13:01:57;;;;;;;3.30;1.23;;;15.40;99.90;;;;;;5033457;28;20199;-41
2022/10/09 13:04:28;;;;;;;2.17;1.10;;;15.50;99.90;;;;;;5032529;28;20286;-40
2022/10/09 13:06:56;;;;;;;2.57;1.07;;;15.50;99.90;;;;;;5037712;28;20757;-40
2022/10/09 13:09:26;;;;;;;1.03;0.80;;;15.60;99.90;;;;;;5020509;28;20310;-41
2022/10/09 13:11:58;;;;;;;4.43;1.23;;;;;;;;;;5026106;28;20230;-43